Time;durP1;ratioP1;P1;durP2;ratioP2;P2;SDS_P1;SDS_P2;PMS_P1;PMS_P2;Temp;Humidity;BMP_temperature;BMP_pressure;BME280_temperature;BME280_humidity;BME280_pressure;Samples;Min_cycle;Max_cycle;Signal;HPM_P1;HPM_P2
2022/11/22 06:19:05;;;;;;;16.48;9.18;;;;;;;;;;5234403;23;20133;-60
2022/11/22 06:21:31;;;;;;;17.92;10.90;;;;;;;;;;5012843;28;20046;-60
2022/11/22 06:23:57;;;;;;;17.83;10.77;;;;;;;;;;5012611;28;20504;-60
2022/11/22 06:26:23;;;;;;;18.20;11.07;;;;;;;;;;5012176;28;20075;-62
2022/11/22 06:28:49;;;;;;;17.27;10.77;;;;;;;;;;5011149;28;20104;-62
2022/11/22 06:31:17;;;;;;;19.08;10.98;;;;;;;;;;5010593;28;20368;-64
2022/11/22 06:33:43;;;;;;;15.73;9.40;;;;;;;;;;5010417;28;20034;-62
2022/11/22 06:36:16;;;;;;;19.02;11.38;;;;;;;;;;5010613;28;20423;-58
2022/11/22 06:38:43;;;;;;;16.00;9.35;;;;;;;;;;5010775;28;20101;-62
2022/11/22 06:41:10;;;;;;;15.50;9.27;;;;;;;;;;4990054;28;20036;-62
2022/11/22 06:43:37;;;;;;;13.02;8.88;;;;;;;;;;5010350;28;20033;-61
2022/11/22 06:46:04;;;;;;;13.98;9.23;;;;;;;;;;5010378;28;20109;-61
2022/11/22 06:48:30;;;;;;;18.80;10.32;;;;;;;;;;5009939;28;20026;-61
2022/11/22 06:51:04;;;;;;;20.40;11.07;;;;;;;;;;5010195;28;20437;-61
2022/11/22 06:53:30;;;;;;;19.55;11.55;;;;;;;;;;5009785;28;20038;-66
2022/11/22 06:56:01;;;;;;;18.50;10.98;;;;;;;;;;5011128;28;20390;-66
2022/11/22 06:58:27;;;;;;;20.55;12.15;;;;;;;;;;5012299;28;20492;-61
2022/11/22 07:00:53;;;;;;;20.77;12.13;;;;;;;;;;5011459;28;20132;-61
2022/11/22 07:03:19;;;;;;;21.33;11.93;;;;;;;;;;5011721;28;20026;-61
2022/11/22 07:05:51;;;;;;;25.77;12.68;;;;;;;;;;5009696;28;20493;-61
2022/11/22 07:08:17;;;;;;;19.90;11.77;;;;;;;;;;5009559;28;20505;-61
2022/11/22 07:10:43;;;;;;;20.40;11.27;;;;;;;;;;5009607;28;20465;-61
2022/11/22 07:13:09;;;;;;;21.17;12.00;;;;;;;;;;5010005;28;20043;-61
2022/11/22 07:15:35;;;;;;;16.90;9.88;;;;;;;;;;5010436;28;20021;-59
2022/11/22 07:18:01;;;;;;;17.08;9.85;;;;;;;;;;4991808;28;20034;-61
2022/11/22 07:20:27;;;;;;;16.23;8.77;;;;;;;;;;5014667;28;20054;-62
2022/11/22 07:22:53;;;;;;;14.50;8.40;;;;;;;;;;5013751;28;20112;-61
2022/11/22 07:25:19;;;;;;;13.98;8.25;;;;;;;;;;5013932;28;20014;-63
2022/11/22 07:27:45;;;;;;;15.70;9.02;;;;;;;;;;5015437;28;20026;-63
2022/11/22 07:30:12;;;;;;;13.35;8.15;;;;;;;;;;5013450;28;20029;-61
2022/11/22 07:32:38;;;;;;;12.30;8.10;;;;;;;;;;5012863;28;20080;-62
2022/11/22 07:35:04;;;;;;;13.02;7.97;;;;;;;;;;5011202;28;20022;-61
2022/11/22 07:37:30;;;;;;;14.88;8.52;;;;;;;;;;5015704;28;20026;-65
2022/11/22 07:39:57;;;;;;;16.35;8.63;;;;;;;;;;5000469;28;20104;-61
2022/11/22 07:42:23;;;;;;;14.70;8.85;;;;;;;;;;5013203;28;20092;-64
2022/11/22 07:44:49;;;;;;;14.13;8.45;;;;;;;;;;5011296;28;20048;-62
2022/11/22 07:47:15;;;;;;;16.50;9.57;;;;;;;;;;5010630;28;20033;-63
2022/11/22 07:49:41;;;;;;;16.70;8.95;;;;;;;;;;5016447;28;20143;-61
2022/11/22 07:52:07;;;;;;;16.48;8.50;;;;;;;;;;5013793;28;20426;-60
2022/11/22 07:54:34;;;;;;;16.50;9.05;;;;;;;;;;5013420;28;20049;-64
2022/11/22 07:57:00;;;;;;;19.20;9.90;;;;;;;;;;5014286;28;20021;-60
2022/11/22 07:59:26;;;;;;;19.42;10.20;;;;;;;;;;5014651;28;20109;-60
2022/11/22 08:01:52;;;;;;;45.17;9.95;;;;;;;;;;5014839;28;20097;-60
2022/11/22 08:04:18;;;;;;;15.82;8.43;;;;;;;;;;5013071;28;20038;-60
2022/11/22 08:06:45;;;;;;;12.82;7.95;;;;;;;;;;5013377;28;20045;-60
2022/11/22 08:09:11;;;;;;;12.93;8.55;;;;;;;;;;5013450;28;20026;-60
2022/11/22 08:11:37;;;;;;;14.52;8.10;;;;;;;;;;5012787;28;20025;-60
2022/11/22 08:14:03;;;;;;;15.35;8.80;;;;;;;;;;5013421;28;20418;-61
2022/11/22 08:16:29;;;;;;;16.45;9.23;;;;;;;;;;5016793;28;20061;-60
2022/11/22 08:18:55;;;;;;;14.48;8.27;;;;;;;;;;5014025;28;20045;-61
2022/11/22 08:21:21;;;;;;;14.27;7.57;;;;;;;;;;5014887;28;20116;-62
2022/11/22 08:23:47;;;;;;;16.15;7.68;;;;;;;;;;5016336;28;20018;-61
2022/11/22 08:26:14;;;;;;;11.25;5.93;;;;;;;;;;5011775;28;20028;-61
2022/11/22 08:28:41;;;;;;;10.77;5.68;;;;;;;;;;5010787;28;20142;-66
2022/11/22 08:31:09;;;;;;;10.50;5.85;;;;;;;;;;5010977;28;20033;-67
2022/11/22 08:33:35;;;;;;;10.52;5.95;;;;;;;;;;5010575;28;20105;-62
2022/11/22 08:36:02;;;;;;;10.63;5.93;;;;;;;;;;5010954;28;20362;-63
2022/11/22 08:38:28;;;;;;;11.43;5.25;;;;;;;;;;5010420;28;20022;-62
2022/11/22 08:40:54;;;;;;;9.48;5.30;;;;;;;;;;5010736;28;20522;-61
2022/11/22 08:43:20;;;;;;;11.90;5.88;;;;;;;;;;5010850;28;20034;-62
2022/11/22 08:45:48;;;;;;;10.27;5.78;;;;;;;;;;5012233;28;20030;-69
2022/11/22 08:48:14;;;;;;;12.18;5.93;;;;;;;;;;5014517;28;20225;-66
2022/11/22 08:50:40;;;;;;;10.15;5.30;;;;;;;;;;5014485;28;20061;-66
2022/11/22 08:53:06;;;;;;;11.00;5.70;;;;;;;;;;5013995;28;20045;-64
2022/11/22 08:55:32;;;;;;;13.38;7.05;;;;;;;;;;5014734;28;20026;-63
2022/11/22 08:58:01;;;;;;;16.63;7.95;;;;;;;;;;5013482;28;20022;-63
2022/11/22 09:00:27;;;;;;;15.73;8.02;;;;;;;;;;5014149;28;20030;-67
2022/11/22 09:02:53;;;;;;;12.23;6.63;;;;;;;;;;5013628;28;20429;-66
2022/11/22 09:05:19;;;;;;;13.60;6.15;;;;;;;;;;5013960;28;20022;-68
2022/11/22 09:07:45;;;;;;;11.63;6.85;;;;;;;;;;5013980;28;20105;-68
2022/11/22 09:10:11;;;;;;;14.40;7.22;;;;;;;;;;5013557;28;20033;-62
2022/11/22 09:12:37;;;;;;;14.88;7.07;;;;;;;;;;5013934;28;20044;-63
2022/11/22 09:15:03;;;;;;;15.23;7.32;;;;;;;;;;5014070;28;20025;-64
2022/11/22 09:17:29;;;;;;;12.52;6.38;;;;;;;;;;4995858;28;20030;-67
2022/11/22 09:19:55;;;;;;;7.75;4.55;;;;;;;;;;5012998;28;20050;-68
2022/11/22 09:22:21;;;;;;;10.43;5.32;;;;;;;;;;5013963;28;20482;-64
2022/11/22 09:24:47;;;;;;;11.50;6.15;;;;;;;;;;5014071;28;20038;-62
2022/11/22 09:27:13;;;;;;;11.52;6.07;;;;;;;;;;5013489;28;20073;-62
2022/11/22 09:29:39;;;;;;;8.75;4.80;;;;;;;;;;5028035;28;20029;-65
2022/11/22 09:32:09;;;;;;;9.30;5.20;;;;;;;;;;5033427;28;20030;-66
2022/11/22 09:34:35;;;;;;;7.30;4.43;;;;;;;;;;5033535;28;20041;-63
2022/11/22 09:37:01;;;;;;;11.20;5.13;;;;;;;;;;5033881;28;20029;-62
2022/11/22 09:39:27;;;;;;;8.65;5.05;;;;;;;;;;5033554;28;20021;-67
2022/11/22 09:42:09;;;;;;;7.97;4.32;;;;;;;;;;5033186;28;20022;-68
2022/11/22 09:44:44;;;;;;;9.40;4.05;;;;;;;;;;5033574;28;20025;-67
2022/11/22 09:47:13;;;;;;;8.02;4.03;;;;;;;;;;5033604;28;20563;-69
2022/11/22 09:49:46;;;;;;;7.25;4.00;;;;;;;;;;5033038;28;20041;-69
2022/11/22 09:52:29;;;;;;;10.63;4.38;;;;;;;;;;5032647;28;20108;-63
2022/11/22 09:54:57;;;;;;;10.02;5.05;;;;;;;;;;5033208;28;20029;-64
2022/11/22 09:57:26;;;;;;;8.05;3.53;;;;;;;;;;5014543;28;20469;-66
2022/11/22 10:00:18;;;;;;;8.75;4.63;;;;;;;;;;5014393;28;20500;-68
2022/11/22 10:02:56;;;;;;;12.25;5.63;;;;;;;;;;5025214;28;20041;-68
2022/11/22 10:05:29;;;;;;;11.90;6.35;;;;;;;;;;5017365;28;20047;-68
2022/11/22 10:08:16;;;;;;;13.15;6.47;;;;;;;;;;5017807;28;20018;-68
2022/11/22 10:10:43;;;;;;;12.63;6.32;;;;;;;;;;5021902;28;20018;-68
2022/11/22 10:13:19;;;;;;;14.82;5.13;;;;;;;;;;5015593;28;20125;-67
2022/11/22 10:15:56;;;;;;;9.50;5.47;;;;;;;;;;5022114;28;20040;-64
2022/11/22 10:18:23;;;;;;;9.00;5.38;;;;;;;;;;5010595;28;20042;-69
2022/11/22 10:20:49;;;;;;;9.60;5.85;;;;;;;;;;5016321;28;20037;-66
2022/11/22 10:23:20;;;;;;;12.93;5.43;;;;;;;;;;5018471;28;20096;-67
2022/11/22 10:25:47;;;;;;;9.07;5.22;;;;;;;;;;5018912;28;20014;-67
2022/11/22 10:28:18;;;;;;;10.48;6.20;;;;;;;;;;5012996;28;20026;-62
2022/11/22 10:30:57;;;;;;;11.20;5.95;;;;;;;;;;5018602;28;20018;-66
2022/11/22 10:33:29;;;;;;;10.02;5.60;;;;;;;;;;5013833;28;20489;-61
2022/11/22 10:36:15;;;;;;;14.23;6.68;;;;;;;;;;5019984;28;20026;-61
2022/11/22 10:38:47;;;;;;;11.57;5.93;;;;;;;;;;5021035;28;20041;-64
2022/11/22 10:41:26;;;;;;;11.27;5.35;;;;;;;;;;5020251;28;20037;-62
2022/11/22 10:44:01;;;;;;;10.55;5.47;;;;;;;;;;5004826;28;20377;-68
2022/11/22 10:46:34;;;;;;;12.00;5.32;;;;;;;;;;5019882;28;20112;-65
2022/11/22 10:49:00;;;;;;;9.30;5.10;;;;;;;;;;5020727;28;20029;-60
2022/11/22 10:51:33;;;;;;;11.10;6.40;;;;;;;;;;5021927;28;20033;-63
2022/11/22 10:53:59;;;;;;;9.70;5.50;;;;;;;;;;5020284;28;20091;-61
2022/11/22 10:56:40;;;;;;;13.63;6.65;;;;;;;;;;5001199;28;20030;-69
2022/11/22 10:59:25;;;;;;;15.65;6.90;;;;;;;;;;5020852;28;20076;-62
2022/11/22 11:02:20;;;;;;;16.05;6.95;;;;;;;;;;5021173;28;20021;-66
2022/11/22 11:04:46;;;;;;;14.95;6.63;;;;;;;;;;4947434;29;20511;-66
2022/11/22 11:07:15;;;;;;;18.73;7.70;;;;;;;;;;4947171;29;20031;-66
2022/11/22 11:10:02;;;;;;;15.75;7.45;;;;;;;;;;4948800;28;20533;-65
2022/11/22 11:12:28;;;;;;;15.70;8.00;;;;;;;;;;4949087;29;20051;-65
2022/11/22 11:15:00;;;;;;;15.48;7.18;;;;;;;;;;4949646;29;20526;-62
2022/11/22 11:17:29;;;;;;;14.80;7.30;;;;;;;;;;4950554;29;20498;-67
2022/11/22 11:19:57;;;;;;;12.02;6.35;;;;;;;;;;4950267;29;20110;-61
2022/11/22 11:22:24;;;;;;;13.35;5.85;;;;;;;;;;4950827;29;20035;-69
2022/11/22 11:24:50;;;;;;;9.68;5.60;;;;;;;;;;4950057;29;20027;-60
2022/11/22 11:27:17;;;;;;;14.25;6.68;;;;;;;;;;4950076;29;20031;-66
2022/11/22 11:29:49;;;;;;;11.13;6.32;;;;;;;;;;4950931;29;20570;-67
2022/11/22 11:32:16;;;;;;;11.73;6.35;;;;;;;;;;4950588;29;20066;-61
2022/11/22 11:34:48;;;;;;;11.27;6.47;;;;;;;;;;4949799;29;20035;-67
2022/11/22 11:37:22;;;;;;;14.65;6.18;;;;;;;;;;4934771;29;20031;-67
2022/11/22 11:39:48;;;;;;;13.25;6.90;;;;;;;;;;4950254;29;20589;-60
2022/11/22 11:42:23;;;;;;;11.13;5.85;;;;;;;;;;5019868;28;20481;-61
2022/11/22 11:44:49;;;;;;;12.48;6.60;;;;;;;;;;5030798;28;20114;-62
2022/11/22 11:47:30;;;;;;;16.52;7.57;;;;;;;;;;5030697;28;20500;-61
2022/11/22 11:49:57;;;;;;;15.65;6.75;;;;;;;;;;5022097;28;20072;-61
2022/11/22 11:52:25;;;;;;;14.23;7.50;;;;;;;;;;5022747;28;20061;-65
2022/11/22 11:54:55;;;;;;;18.85;7.53;;;;;;;;;;5010631;28;20401;-69
2022/11/22 11:57:30;;;;;;;15.68;8.15;;;;;;;;;;5010767;28;20109;-64
2022/11/22 12:00:00;;;;;;;15.13;8.10;;;;;;;;;;4992565;28;20072;-60
2022/11/22 12:02:29;;;;;;;13.88;7.53;;;;;;;;;;5010962;28;20061;-63
2022/11/22 12:05:05;;;;;;;16.10;7.05;;;;;;;;;;5010225;28;20105;-60
2022/11/22 12:07:34;;;;;;;14.07;7.35;;;;;;;;;;5010599;28;20393;-60
2022/11/22 12:10:01;;;;;;;19.55;8.30;;;;;;;;;;5010796;28;20030;-60
2022/11/22 12:12:59;;;;;;;15.95;7.88;;;;;;;;;;5010803;28;20429;-60
2022/11/22 12:15:48;;;;;;;17.85;8.07;;;;;;;;;;4912108;29;20039;-63
2022/11/22 12:18:33;;;;;;;13.27;7.55;;;;;;;;;;4899442;29;20063;-62
2022/11/22 12:21:17;;;;;;;10.60;6.15;;;;;;;;;;4913961;29;20043;-60
2022/11/22 12:23:58;;;;;;;11.98;5.72;;;;;;;;;;4915871;29;20040;-68
2022/11/22 12:26:26;;;;;;;11.18;5.47;;;;;;;;;;4915954;29;20040;-68
2022/11/22 12:28:53;;;;;;;10.00;5.57;;;;;;;;;;4916047;29;20480;-66
2022/11/22 12:31:21;;;;;;;10.55;5.57;;;;;;;;;;4916044;29;20036;-61
2022/11/22 12:33:50;;;;;;;12.20;6.03;;;;;;;;;;4915478;29;20044;-59
2022/11/22 12:36:36;;;;;;;14.70;6.70;;;;;;;;;;4899957;29;20032;-61
2022/11/22 12:39:03;;;;;;;15.80;8.45;;;;;;;;;;4899866;29;20039;-60
2022/11/22 12:41:31;;;;;;;18.15;8.00;;;;;;;;;;4915796;29;20039;-67
2022/11/22 12:43:59;;;;;;;15.40;7.70;;;;;;;;;;4915825;29;20131;-60
2022/11/22 12:46:28;;;;;;;17.73;7.78;;;;;;;;;;4915371;29;20656;-66
2022/11/22 12:48:56;;;;;;;13.57;7.20;;;;;;;;;;4917930;29;20036;-60
2022/11/22 12:51:26;;;;;;;14.35;6.90;;;;;;;;;;4953604;28;20064;-61
2022/11/22 12:53:55;;;;;;;13.77;6.13;;;;;;;;;;5023166;28;20404;-61
2022/11/22 12:56:21;;;;;;;11.50;6.30;;;;;;;;;;5022578;28;20474;-59
2022/11/22 12:59:05;;;;;;;13.70;5.85;;;;;;;;;;5021901;28;20385;-60
2022/11/22 13:01:32;;;;;;;10.07;5.05;;;;;;;;;;5023386;28;20548;-60
2022/11/22 13:04:04;;;;;;;10.05;5.32;;;;;;;;;;5021977;28;20382;-61
2022/11/22 13:06:34;;;;;;;9.27;5.53;;;;;;;;;;5020999;28;20436;-61
2022/11/22 13:09:07;;;;;;;9.77;4.68;;;;;;;;;;5022650;28;20362;-60
2022/11/22 13:11:39;;;;;;;13.13;6.13;;;;;;;;;;5014157;28;20033;-60
2022/11/22 13:14:14;;;;;;;9.88;5.40;;;;;;;;;;5014284;28;20398;-66
2022/11/22 13:16:40;;;;;;;10.40;5.78;;;;;;;;;;5014373;28;20081;-60
2022/11/22 13:19:07;;;;;;;12.75;5.13;;;;;;;;;;5013742;28;20043;-67
2022/11/22 13:21:36;;;;;;;13.52;5.05;;;;;;;;;;5013992;28;20033;-66
2022/11/22 13:24:05;;;;;;;8.80;4.70;;;;;;;;;;5013865;28;20040;-66
2022/11/22 13:26:46;;;;;;;11.07;4.55;;;;;;;;;;4996172;28;20402;-65
2022/11/22 13:29:20;;;;;;;10.70;4.55;;;;;;;;;;4996280;28;20022;-59
2022/11/22 13:32:01;;;;;;;9.25;4.75;;;;;;;;;;5012988;28;20026;-68
2022/11/22 13:34:28;;;;;;;10.90;4.88;;;;;;;;;;5013610;28;20053;-60
2022/11/22 13:36:54;;;;;;;10.45;4.35;;;;;;;;;;5013830;28;20022;-62
2022/11/22 13:39:22;;;;;;;11.02;4.25;;;;;;;;;;5013553;28;20174;-60
2022/11/22 13:41:51;;;;;;;10.45;4.57;;;;;;;;;;5013603;28;20033;-61
2022/11/22 13:44:25;;;;;;;13.80;5.35;;;;;;;;;;5013580;28;20560;-62
2022/11/22 13:47:14;;;;;;;13.27;5.25;;;;;;;;;;5021463;28;20499;-69
2022/11/22 13:49:44;;;;;;;10.60;4.97;;;;;;;;;;4933636;29;20040;-66
2022/11/22 13:52:16;;;;;;;13.32;5.60;;;;;;;;;;4933709;29;20066;-60
2022/11/22 13:54:57;;;;;;;9.70;4.03;;;;;;;;;;4933550;29;20044;-67
2022/11/22 13:57:24;;;;;;;9.68;4.63;;;;;;;;;;4930392;29;20496;-60
2022/11/22 14:00:09;;;;;;;12.68;5.15;;;;;;;;;;4933187;29;20032;-63
2022/11/22 14:02:36;;;;;;;12.10;5.65;;;;;;;;;;4933457;29;20391;-65
2022/11/22 14:05:02;;;;;;;10.90;5.43;;;;;;;;;;4932768;29;20481;-65
2022/11/22 14:07:28;;;;;;;9.85;5.18;;;;;;;;;;4932302;29;20040;-60
2022/11/22 14:09:55;;;;;;;11.52;5.78;;;;;;;;;;4933414;29;20379;-61
2022/11/22 14:12:37;;;;;;;11.90;6.03;;;;;;;;;;4929768;29;20043;-66
2022/11/22 14:15:22;;;;;;;15.07;6.70;;;;;;;;;;4932782;29;20082;-65
2022/11/22 14:17:48;;;;;;;13.70;7.20;;;;;;;;;;4943727;29;20457;-60
2022/11/22 14:20:26;;;;;;;14.88;6.57;;;;;;;;;;4932410;29;20048;-60
2022/11/22 14:22:55;;;;;;;16.92;5.97;;;;;;;;;;4936935;29;20027;-59
2022/11/22 14:25:30;;;;;;;12.43;7.30;;;;;;;;;;4939360;29;20046;-59
2022/11/22 14:28:14;;;;;;;14.07;7.13;;;;;;;;;;4993064;28;20437;-60
2022/11/22 14:30:46;;;;;;;16.05;6.57;;;;;;;;;;4992895;28;20062;-61
2022/11/22 14:33:17;;;;;;;18.67;8.90;;;;;;;;;;5005920;28;20099;-61
2022/11/22 14:36:01;;;;;;;19.25;9.52;;;;;;;;;;5016501;28;20383;-63
2022/11/22 14:38:29;;;;;;;18.00;9.13;;;;;;;;;;5018561;28;20049;-61
2022/11/22 14:41:14;;;;;;;17.48;8.63;;;;;;;;;;5023535;28;20026;-62
2022/11/22 14:43:42;;;;;;;19.60;9.80;;;;;;;;;;5012225;28;20034;-61
2022/11/22 14:46:13;;;;;;;19.20;9.57;;;;;;;;;;5012147;28;20027;-61
2022/11/22 14:49:05;;;;;;;17.85;8.88;;;;;;;;;;5011984;28;20030;-63
2022/11/22 14:51:32;;;;;;;15.73;8.35;;;;;;;;;;5008011;28;20057;-59
2022/11/22 14:54:03;;;;;;;16.80;9.07;;;;;;;;;;5014895;28;20030;-60
2022/11/22 14:56:29;;;;;;;11.70;5.97;;;;;;;;;;5012915;28;20029;-61
2022/11/22 14:58:58;;;;;;;15.23;7.57;;;;;;;;;;5012237;28;20030;-65
2022/11/22 15:01:32;;;;;;;17.05;8.07;;;;;;;;;;5012189;28;20029;-60
2022/11/22 15:04:01;;;;;;;16.70;7.80;;;;;;;;;;5019695;28;20471;-62
2022/11/22 15:06:36;;;;;;;19.13;9.65;;;;;;;;;;5011391;28;20030;-65
2022/11/22 15:09:11;;;;;;;16.25;8.30;;;;;;;;;;5013991;28;20037;-60
2022/11/22 15:11:56;;;;;;;19.60;10.15;;;;;;;;;;5030532;28;20026;-62
2022/11/22 15:14:34;;;;;;;20.45;10.55;;;;;;;;;;5031575;28;20041;-61
2022/11/22 15:17:00;;;;;;;20.60;10.05;;;;;;;;;;5031777;28;20021;-61
2022/11/22 15:19:34;;;;;;;23.17;10.13;;;;;;;;;;5030906;28;20095;-60
2022/11/22 15:22:11;;;;;;;18.23;9.02;;;;;;;;;;5026163;28;20075;-58
2022/11/22 15:24:41;;;;;;;16.67;8.63;;;;;;;;;;5011858;28;20064;-61
2022/11/22 15:27:17;;;;;;;16.70;8.02;;;;;;;;;;5011770;28;20033;-59
2022/11/22 15:29:44;;;;;;;13.80;7.60;;;;;;;;;;5026282;28;20035;-59
2022/11/22 15:32:14;;;;;;;13.23;7.82;;;;;;;;;;5031257;28;20017;-60
2022/11/22 15:34:46;;;;;;;12.85;7.25;;;;;;;;;;5030950;28;20045;-62
2022/11/22 15:37:32;;;;;;;14.75;8.32;;;;;;;;;;5031226;28;20031;-62
2022/11/22 15:39:58;;;;;;;16.80;7.88;;;;;;;;;;5031018;28;20029;-62
2022/11/22 15:42:24;;;;;;;13.23;7.50;;;;;;;;;;5031010;28;20149;-62
2022/11/22 15:44:51;;;;;;;15.63;7.97;;;;;;;;;;5030773;28;20053;-61
2022/11/22 15:47:19;;;;;;;19.23;8.57;;;;;;;;;;5031015;28;20026;-63
2022/11/22 15:49:45;;;;;;;15.63;8.30;;;;;;;;;;5030510;28;20064;-66
2022/11/22 15:52:27;;;;;;;16.88;8.20;;;;;;;;;;5030639;28;20099;-64
2022/11/22 15:54:55;;;;;;;11.18;6.28;;;;;;;;;;5030414;28;20033;-62
2022/11/22 15:57:27;;;;;;;17.80;8.60;;;;;;;;;;5031182;28;21092;-63
2022/11/22 15:59:54;;;;;;;16.45;8.45;;;;;;;;;;5031231;28;20033;-67
2022/11/22 16:02:21;;;;;;;17.05;8.82;;;;;;;;;;5031153;28;20033;-62
2022/11/22 16:04:51;;;;;;;17.48;8.88;;;;;;;;;;5030793;28;20029;-62
2022/11/22 16:07:30;;;;;;;18.10;8.68;;;;;;;;;;5030449;28;20491;-62
2022/11/22 16:09:57;;;;;;;16.25;8.27;;;;;;;;;;5030628;28;20026;-62
2022/11/22 16:12:36;;;;;;;13.88;7.68;;;;;;;;;;5030421;28;20555;-63
2022/11/22 16:15:20;;;;;;;15.80;8.82;;;;;;;;;;5030747;28;20060;-63
2022/11/22 16:17:51;;;;;;;17.35;7.93;;;;;;;;;;5030622;28;20036;-64
2022/11/22 16:20:31;;;;;;;17.88;8.85;;;;;;;;;;5030412;28;20048;-62
2022/11/22 16:23:09;;;;;;;21.17;9.30;;;;;;;;;;5029986;28;20034;-63
2022/11/22 16:25:45;;;;;;;18.05;9.50;;;;;;;;;;5030685;28;20426;-62
2022/11/22 16:28:17;;;;;;;16.50;8.52;;;;;;;;;;5021967;28;20037;-62
2022/11/22 16:30:44;;;;;;;15.75;8.02;;;;;;;;;;5027893;28;20033;-62
2022/11/22 16:33:11;;;;;;;16.83;8.20;;;;;;;;;;5030683;28;20060;-61
2022/11/22 16:35:37;;;;;;;18.90;8.98;;;;;;;;;;5030413;28;20552;-61
2022/11/22 16:38:03;;;;;;;18.60;8.68;;;;;;;;;;5026600;28;20077;-60
2022/11/22 16:40:30;;;;;;;22.83;8.65;;;;;;;;;;5014247;28;20429;-62
2022/11/22 16:42:56;;;;;;;18.35;9.40;;;;;;;;;;5010635;28;20447;-62
2022/11/22 16:45:22;;;;;;;15.77;8.57;;;;;;;;;;5010524;28;20026;-61
2022/11/22 16:47:53;;;;;;;20.33;10.07;;;;;;;;;;5010359;28;20041;-62
2022/11/22 16:50:19;;;;;;;17.50;8.98;;;;;;;;;;5010442;28;20026;-62
2022/11/22 16:52:46;;;;;;;16.90;8.57;;;;;;;;;;5013260;28;20500;-62
2022/11/22 16:55:19;;;;;;;15.50;7.45;;;;;;;;;;5027115;28;20068;-63
2022/11/22 16:57:45;;;;;;;14.77;7.88;;;;;;;;;;5025531;28;20117;-63
2022/11/22 17:00:12;;;;;;;15.15;8.00;;;;;;;;;;5030451;28;20040;-63
2022/11/22 17:02:38;;;;;;;20.05;9.07;;;;;;;;;;5028630;28;20503;-63
2022/11/22 17:05:05;;;;;;;15.18;8.30;;;;;;;;;;5027049;28;20030;-62
2022/11/22 17:07:31;;;;;;;14.70;7.47;;;;;;;;;;5022315;28;20029;-62
2022/11/22 17:09:57;;;;;;;13.63;7.20;;;;;;;;;;5023420;28;20059;-62
2022/11/22 17:12:24;;;;;;;14.63;8.00;;;;;;;;;;5014059;28;20405;-62
2022/11/22 17:14:50;;;;;;;18.63;8.75;;;;;;;;;;5014187;28;20041;-62
2022/11/22 17:17:17;;;;;;;18.50;9.30;;;;;;;;;;5014388;28;20497;-62
2022/11/22 17:19:43;;;;;;;20.85;9.93;;;;;;;;;;5013516;28;20050;-62
2022/11/22 17:22:11;;;;;;;19.05;9.15;;;;;;;;;;5013493;28;20026;-67
2022/11/22 17:24:37;;;;;;;15.63;7.35;;;;;;;;;;5013691;28;20385;-62
2022/11/22 17:27:03;;;;;;;14.73;7.93;;;;;;;;;;5013536;28;20096;-67
2022/11/22 17:29:29;;;;;;;14.10;7.20;;;;;;;;;;5013851;28;20025;-63
2022/11/22 17:31:55;;;;;;;16.80;7.85;;;;;;;;;;5013607;28;20233;-62
2022/11/22 17:34:21;;;;;;;14.82;8.23;;;;;;;;;;5013546;28;20073;-61
2022/11/22 17:36:47;;;;;;;18.00;8.20;;;;;;;;;;5013480;28;20551;-69
2022/11/22 17:39:14;;;;;;;17.13;7.95;;;;;;;;;;5013351;28;20539;-61
2022/11/22 17:41:40;;;;;;;15.23;7.78;;;;;;;;;;5013290;28;20479;-62
2022/11/22 17:44:06;;;;;;;13.27;6.90;;;;;;;;;;5015525;28;20025;-62
2022/11/22 17:46:36;;;;;;;13.93;7.05;;;;;;;;;;5013438;28;20036;-62
2022/11/22 17:49:04;;;;;;;13.57;6.55;;;;;;;;;;5013221;28;20022;-62
2022/11/22 17:51:31;;;;;;;15.48;6.88;;;;;;;;;;5013303;28;20066;-61
2022/11/22 17:53:57;;;;;;;11.50;6.10;;;;;;;;;;5013209;28;20113;-69
2022/11/22 17:56:24;;;;;;;11.70;6.10;;;;;;;;;;5013185;28;20473;-61
2022/11/22 17:58:50;;;;;;;12.20;6.63;;;;;;;;;;5013400;28;20084;-68
2022/11/22 18:01:20;;;;;;;12.70;5.72;;;;;;;;;;5013035;28;20018;-62
2022/11/22 18:03:46;;;;;;;11.40;6.85;;;;;;;;;;5012921;28;20029;-61
2022/11/22 18:06:13;;;;;;;10.35;5.78;;;;;;;;;;5012775;28;20104;-63
2022/11/22 18:08:39;;;;;;;11.95;6.70;;;;;;;;;;5011973;28;20109;-64
2022/11/22 18:11:06;;;;;;;13.25;6.88;;;;;;;;;;5012687;28;20072;-62
2022/11/22 18:13:34;;;;;;;12.02;5.88;;;;;;;;;;5012942;28;20523;-62
2022/11/22 18:16:00;;;;;;;9.70;5.45;;;;;;;;;;5012810;28;20029;-63
2022/11/22 18:18:26;;;;;;;11.25;5.95;;;;;;;;;;5012039;28;20108;-62
2022/11/22 18:20:54;;;;;;;11.05;6.18;;;;;;;;;;5012689;28;20038;-62
2022/11/22 18:23:20;;;;;;;13.77;7.05;;;;;;;;;;5019546;28;20030;-66
2022/11/22 18:25:46;;;;;;;13.32;7.22;;;;;;;;;;5021368;28;20045;-65
2022/11/22 18:28:13;;;;;;;14.75;7.28;;;;;;;;;;5020613;28;20475;-64
2022/11/22 18:30:40;;;;;;;15.43;7.25;;;;;;;;;;5021727;28;20026;-62
2022/11/22 18:33:06;;;;;;;14.10;7.30;;;;;;;;;;5021042;28;20116;-66
2022/11/22 18:35:32;;;;;;;9.68;5.68;;;;;;;;;;5020300;28;20034;-63
2022/11/22 18:37:59;;;;;;;11.48;6.50;;;;;;;;;;5021852;28;20053;-63
2022/11/22 18:40:25;;;;;;;14.23;7.10;;;;;;;;;;5021879;28;20033;-64
2022/11/22 18:42:55;;;;;;;14.00;7.55;;;;;;;;;;5021722;28;20589;-62
2022/11/22 18:45:21;;;;;;;13.27;7.03;;;;;;;;;;5019681;28;20026;-62
2022/11/22 18:47:48;;;;;;;13.43;7.20;;;;;;;;;;5021037;28;20497;-63
2022/11/22 18:50:14;;;;;;;15.30;7.40;;;;;;;;;;5020832;28;20091;-64
2022/11/22 18:52:41;;;;;;;14.77;7.80;;;;;;;;;;5019362;28;20038;-70
2022/11/22 18:55:07;;;;;;;16.40;8.77;;;;;;;;;;5013540;28;20077;-70
2022/11/22 18:57:34;;;;;;;21.00;8.32;;;;;;;;;;5012205;28;20101;-62
2022/11/22 19:00:00;;;;;;;17.83;8.85;;;;;;;;;;5015964;28;20032;-65
2022/11/22 19:02:26;;;;;;;19.42;9.35;;;;;;;;;;5011136;28;20026;-63
2022/11/22 19:04:53;;;;;;;14.77;8.50;;;;;;;;;;5011437;28;20021;-62
2022/11/22 19:07:20;;;;;;;18.38;8.15;;;;;;;;;;5011967;28;20033;-62
2022/11/22 19:09:46;;;;;;;16.08;7.63;;;;;;;;;;5011020;28;20470;-72
2022/11/22 19:12:12;;;;;;;15.43;8.35;;;;;;;;;;5013580;28;20033;-63
2022/11/22 19:14:39;;;;;;;14.77;8.05;;;;;;;;;;5013480;28;20036;-64
2022/11/22 19:17:05;;;;;;;15.70;7.75;;;;;;;;;;5011503;28;20093;-66
2022/11/22 19:19:31;;;;;;;14.07;7.28;;;;;;;;;;5011009;28;20060;-62
2022/11/22 19:22:01;;;;;;;13.85;7.88;;;;;;;;;;5011349;28;20418;-62
2022/11/22 19:24:27;;;;;;;11.80;6.93;;;;;;;;;;5011421;28;20037;-62
2022/11/22 19:26:53;;;;;;;13.75;7.57;;;;;;;;;;5011261;28;20072;-62
2022/11/22 19:29:19;;;;;;;12.20;7.47;;;;;;;;;;5010972;28;20054;-64
2022/11/22 19:31:45;;;;;;;12.73;7.90;;;;;;;;;;5010617;28;20356;-64
2022/11/22 19:34:11;;;;;;;17.02;7.78;;;;;;;;;;5010926;28;20045;-69
2022/11/22 19:36:39;;;;;;;13.48;7.10;;;;;;;;;;5011076;28;20405;-62
2022/11/22 19:39:06;;;;;;;12.65;7.22;;;;;;;;;;5010777;28;20522;-64
2022/11/22 19:41:32;;;;;;;12.70;7.85;;;;;;;;;;5011342;28;20025;-64
2022/11/22 19:43:59;;;;;;;12.88;7.55;;;;;;;;;;5011156;28;20058;-63
2022/11/22 19:46:25;;;;;;;13.88;8.27;;;;;;;;;;5011248;28;20088;-63
2022/11/22 19:48:52;;;;;;;13.65;7.95;;;;;;;;;;5012225;28;20034;-62
2022/11/22 19:51:18;;;;;;;13.05;7.60;;;;;;;;;;5018114;28;20045;-63
2022/11/22 19:53:44;;;;;;;14.15;7.75;;;;;;;;;;5017931;28;20032;-62
2022/11/22 19:56:15;;;;;;;15.77;8.57;;;;;;;;;;5019709;28;20615;-62
2022/11/22 19:58:41;;;;;;;14.63;7.95;;;;;;;;;;5017063;28;20079;-64
2022/11/22 20:01:12;;;;;;;16.75;8.73;;;;;;;;;;5019588;28;20133;-62
2022/11/22 20:03:39;;;;;;;13.93;8.68;;;;;;;;;;5020280;28;20029;-62
2022/11/22 20:06:06;;;;;;;15.05;9.20;;;;;;;;;;5018251;28;20014;-64
2022/11/22 20:08:32;;;;;;;13.70;9.35;;;;;;;;;;5026795;28;20064;-62
2022/11/22 20:11:09;;;;;;;15.13;9.50;;;;;;;;;;5030608;28;20039;-62
2022/11/22 20:13:36;;;;;;;16.13;8.93;;;;;;;;;;5015479;28;20225;-63
2022/11/22 20:16:12;;;;;;;16.75;9.77;;;;;;;;;;5016848;28;20053;-61
2022/11/22 20:18:39;;;;;;;15.63;9.18;;;;;;;;;;5018240;28;20062;-63
2022/11/22 20:21:06;;;;;;;16.52;9.55;;;;;;;;;;5018996;28;20033;-62
2022/11/22 20:23:32;;;;;;;15.63;9.63;;;;;;;;;;5020450;28;20040;-63
2022/11/22 20:26:02;;;;;;;15.57;8.88;;;;;;;;;;5018266;28;20101;-63
2022/11/22 20:28:28;;;;;;;18.73;9.95;;;;;;;;;;5018535;28;20025;-69
2022/11/22 20:31:03;;;;;;;16.08;9.45;;;;;;;;;;5017397;28;20378;-60
2022/11/22 20:33:29;;;;;;;18.50;10.23;;;;;;;;;;5016677;28;20452;-61
2022/11/22 20:36:06;;;;;;;17.55;8.82;;;;;;;;;;5016888;28;20018;-61
2022/11/22 20:38:33;;;;;;;16.40;9.60;;;;;;;;;;5019984;28;20369;-62
2022/11/22 20:40:59;;;;;;;16.77;9.48;;;;;;;;;;5016505;28;20128;-61
2022/11/22 20:43:25;;;;;;;15.00;9.68;;;;;;;;;;5022592;28;20053;-61
2022/11/22 20:46:04;;;;;;;16.55;9.60;;;;;;;;;;5020648;28;20026;-64
2022/11/22 20:48:31;;;;;;;16.13;10.23;;;;;;;;;;5020074;28;20100;-60
2022/11/22 20:50:58;;;;;;;16.25;9.75;;;;;;;;;;5022122;28;20080;-66
2022/11/22 20:53:24;;;;;;;16.40;9.68;;;;;;;;;;5022316;28;20061;-67
2022/11/22 20:55:50;;;;;;;15.40;8.98;;;;;;;;;;5014623;28;20418;-62
2022/11/22 20:58:16;;;;;;;14.35;8.50;;;;;;;;;;5017191;28;20021;-61
2022/11/22 21:00:42;;;;;;;13.20;8.50;;;;;;;;;;5033624;28;20033;-63
2022/11/22 21:03:08;;;;;;;12.60;7.75;;;;;;;;;;5024507;28;20401;-62